sensor_id;sensor_type;location;lat;lon;timestamp;pressure;altitude;pressure_sealevel;temperature;humidity
57799;BME280;43626;53.866;30.298;2022-11-15T00:04:09;1031.4;;;1.7;61.6
57799;BME280;43626;53.866;30.298;2022-11-15T00:09:19;1031.4;;;1.7;61.5
57799;BME280;43626;53.866;30.298;2022-11-15T00:14:39;1031.4;;;1.7;61.6
57799;BME280;43626;53.866;30.298;2022-11-15T00:19:23;1031.4;;;1.8;61.6
57799;BME280;43626;53.866;30.298;2022-11-15T00:24:53;1031.3;;;1.8;61.7
57799;BME280;43626;53.866;30.298;2022-11-15T00:29:05;1031.1;;;1.8;61.8
57799;BME280;43626;53.866;30.298;2022-11-15T00:34:37;1031;;;1.9;61.9
57799;BME280;43626;53.866;30.298;2022-11-15T00:39:35;1030.9;;;1.9;61.9
57799;BME280;43626;53.866;30.298;2022-11-15T00:44:39;1030.7;;;2;61.7
57799;BME280;43626;53.866;30.298;2022-11-15T00:49:39;1030.7;;;2;61.8
57799;BME280;43626;53.866;30.298;2022-11-15T00:54:11;1030.6;;;2.1;61.9
57799;BME280;43626;53.866;30.298;2022-11-15T00:59:51;1030.5;;;2.2;61.9
57799;BME280;43626;53.866;30.298;2022-11-15T01:04:05;1030.4;;;2.2;61.9
57799;BME280;43626;53.866;30.298;2022-11-15T01:09:33;1030.4;;;2.2;61.9
57799;BME280;43626;53.866;30.298;2022-11-15T01:14:27;1030.3;;;2.3;62
57799;BME280;43626;53.866;30.298;2022-11-15T01:19:05;1030.2;;;2.3;62.2
57799;BME280;43626;53.866;30.298;2022-11-15T01:24:11;1030.1;;;2.4;62.1
57799;BME280;43626;53.866;30.298;2022-11-15T01:29:41;1030.1;;;2.4;62.2
57799;BME280;43626;53.866;30.298;2022-11-15T01:34:27;1030;;;2.4;62.5
57799;BME280;43626;53.866;30.298;2022-11-15T01:39:57;1030;;;2.5;62.6
57799;BME280;43626;53.866;30.298;2022-11-15T01:44:34;1029.8;;;2.5;62.8
57799;BME280;43626;53.866;30.298;2022-11-15T01:49:45;1029.7;;;2.5;63
57799;BME280;43626;53.866;30.298;2022-11-15T01:54:37;1029.6;;;2.6;63.1
57799;BME280;43626;53.866;30.298;2022-11-15T01:59:42;1029.5;;;2.7;63
57799;BME280;43626;53.866;30.298;2022-11-15T02:04:57;1029.4;;;2.7;63
57799;BME280;43626;53.866;30.298;2022-11-15T02:09:05;1029.4;;;2.8;63
57799;BME280;43626;53.866;30.298;2022-11-15T02:14:55;1029.4;;;2.8;63
57799;BME280;43626;53.866;30.298;2022-11-15T02:19:07;1029.3;;;2.9;63
57799;BME280;43626;53.866;30.298;2022-11-15T02:24:49;1029.3;;;2.9;63.1
57799;BME280;43626;53.866;30.298;2022-11-15T02:29:23;1029.2;;;2.9;63.1
57799;BME280;43626;53.866;30.298;2022-11-15T02:34:05;1029.1;;;3;63.2
57799;BME280;43626;53.866;30.298;2022-11-15T02:39:24;1029.1;;;3;63.4
57799;BME280;43626;53.866;30.298;2022-11-15T02:44:45;1029;;;3;63.3
57799;BME280;43626;53.866;30.298;2022-11-15T02:49:27;1028.9;;;3.1;63.3
57799;BME280;43626;53.866;30.298;2022-11-15T02:54:57;1028.8;;;3.1;63.2
57799;BME280;43626;53.866;30.298;2022-11-15T02:59:24;1028.7;;;3.1;63.2
57799;BME280;43626;53.866;30.298;2022-11-15T03:04:55;1028.6;;;3.2;63.2
57799;BME280;43626;53.866;30.298;2022-11-15T03:09:56;1028.5;;;3.2;63.4
57799;BME280;43626;53.866;30.298;2022-11-15T03:14:44;1028.5;;;3.2;63.3
57799;BME280;43626;53.866;30.298;2022-11-15T03:19:44;1028.4;;;3.3;63.3
57799;BME280;43626;53.866;30.298;2022-11-15T03:24:15;1028.3;;;3.2;63.4
57799;BME280;43626;53.866;30.298;2022-11-15T03:29:54;1028.3;;;3.2;63.6
57799;BME280;43626;53.866;30.298;2022-11-15T03:34:57;1028.2;;;3.2;63.7
57799;BME280;43626;53.866;30.298;2022-11-15T03:39:39;1028.1;;;3.3;63.5
57799;BME280;43626;53.866;30.298;2022-11-15T03:44:16;1028.1;;;3.3;63.6
57799;BME280;43626;53.866;30.298;2022-11-15T03:49:14;1028;;;3.4;63.6
57799;BME280;43626;53.866;30.298;2022-11-15T03:54:23;1027.9;;;3.4;63.6
57799;BME280;43626;53.866;30.298;2022-11-15T03:59:53;1027.8;;;3.4;63.6
57799;BME280;43626;53.866;30.298;2022-11-15T04:04:15;1027.6;;;3.4;63.7
57799;BME280;43626;53.866;30.298;2022-11-15T04:09:55;1027.6;;;3.5;63.7
57799;BME280;43626;53.866;30.298;2022-11-15T04:14:05;1027.5;;;3.5;63.6
57799;BME280;43626;53.866;30.298;2022-11-15T04:19:37;1027.5;;;3.5;63.7
57799;BME280;43626;53.866;30.298;2022-11-15T04:24:21;1027.4;;;3.5;63.7
57799;BME280;43626;53.866;30.298;2022-11-15T04:29:43;1027.2;;;3.5;63.8
57799;BME280;43626;53.866;30.298;2022-11-15T04:34:41;1027.1;;;3.5;63.8
57799;BME280;43626;53.866;30.298;2022-11-15T04:39:29;1026.9;;;3.4;63.9
57799;BME280;43626;53.866;30.298;2022-11-15T04:44:55;1026.8;;;3.4;64.1
57799;BME280;43626;53.866;30.298;2022-11-15T04:49:41;1026.7;;;3.4;64.2
57799;BME280;43626;53.866;30.298;2022-11-15T04:54:35;1026.6;;;3.4;64.2
57799;BME280;43626;53.866;30.298;2022-11-15T04:59:27;1026.6;;;3.4;64.3
57799;BME280;43626;53.866;30.298;2022-11-15T05:04:15;1026.5;;;3.4;64.3
57799;BME280;43626;53.866;30.298;2022-11-15T05:09:25;1026.4;;;3.5;64.5
57799;BME280;43626;53.866;30.298;2022-11-15T05:14:53;1026.4;;;3.5;64.4
57799;BME280;43626;53.866;30.298;2022-11-15T05:19:25;1026.3;;;3.6;64.4
57799;BME280;43626;53.866;30.298;2022-11-15T05:24:53;1026.3;;;3.5;64.5
57799;BME280;43626;53.866;30.298;2022-11-15T05:29:13;1026.2;;;3.4;64.7
57799;BME280;43626;53.866;30.298;2022-11-15T05:34:55;1026.1;;;3.4;64.9
57799;BME280;43626;53.866;30.298;2022-11-15T05:39:25;1026.1;;;3.4;65
57799;BME280;43626;53.866;30.298;2022-11-15T05:44:44;1026.1;;;3.3;65.1
57799;BME280;43626;53.866;30.298;2022-11-15T05:49:41;1026.1;;;3.3;65.1
57799;BME280;43626;53.866;30.298;2022-11-15T05:54:15;1026;;;3.3;65.1
57799;BME280;43626;53.866;30.298;2022-11-15T05:59:37;1026;;;3.3;65
57799;BME280;43626;53.866;30.298;2022-11-15T06:04:55;1025.9;;;3.3;65
57799;BME280;43626;53.866;30.298;2022-11-15T06:09:39;1025.8;;;3.3;65.1
57799;BME280;43626;53.866;30.298;2022-11-15T06:14:29;1025.8;;;3.3;65.1
57799;BME280;43626;53.866;30.298;2022-11-15T06:19:05;1025.7;;;3.2;65.2
57799;BME280;43626;53.866;30.298;2022-11-15T06:24:25;1025.7;;;3.1;65.5
57799;BME280;43626;53.866;30.298;2022-11-15T06:29:49;1025.6;;;3.2;65.5
57799;BME280;43626;53.866;30.298;2022-11-15T06:34:25;1025.5;;;3.2;65.6
57799;BME280;43626;53.866;30.298;2022-11-15T06:39:51;1025.5;;;3.2;65.5
57799;BME280;43626;53.866;30.298;2022-11-15T06:44:27;1025.5;;;3.3;65.4
57799;BME280;43626;53.866;30.298;2022-11-15T06:49:51;1025.5;;;3.3;65.4
57799;BME280;43626;53.866;30.298;2022-11-15T06:54:23;1025.4;;;3.3;65.3
57799;BME280;43626;53.866;30.298;2022-11-15T06:59:37;1025.4;;;3.3;65.3
57799;BME280;43626;53.866;30.298;2022-11-15T07:04:39;1025.3;;;3.3;65.3
57799;BME280;43626;53.866;30.298;2022-11-15T07:09:15;1025.3;;;3.3;65.3
57799;BME280;43626;53.866;30.298;2022-11-15T07:14:51;1025.3;;;3.3;65.3
57799;BME280;43626;53.866;30.298;2022-11-15T07:19:51;1025.2;;;3.2;65.4
57799;BME280;43626;53.866;30.298;2022-11-15T07:24:37;1025.3;;;3.2;65.6
57799;BME280;43626;53.866;30.298;2022-11-15T07:29:27;1025.2;;;3.2;65.6
57799;BME280;43626;53.866;30.298;2022-11-15T07:34:03;1025.2;;;3.1;65.9
57799;BME280;43626;53.866;30.298;2022-11-15T07:39:39;1025.2;;;3.2;65.9
57799;BME280;43626;53.866;30.298;2022-11-15T07:44:51;1025.1;;;3.2;65.7
57799;BME280;43626;53.866;30.298;2022-11-15T07:49:27;1025;;;3.2;65.8
57799;BME280;43626;53.866;30.298;2022-11-15T07:54:55;1025;;;3.2;65.8
57799;BME280;43626;53.866;30.298;2022-11-15T07:59:05;1025;;;3.2;65.7
57799;BME280;43626;53.866;30.298;2022-11-15T08:04:49;1024.9;;;3.1;65.5
57799;BME280;43626;53.866;30.298;2022-11-15T08:09:05;1024.9;;;3.1;65.4
57799;BME280;43626;53.866;30.298;2022-11-15T08:14:37;1024.8;;;3.1;65.4
57799;BME280;43626;53.866;30.298;2022-11-15T08:19:39;1024.6;;;3.1;65.6
57799;BME280;43626;53.866;30.298;2022-11-15T08:24:19;1024.7;;;3;65.9
57799;BME280;43626;53.866;30.298;2022-11-15T08:29:53;1024.6;;;3;66.3
57799;BME280;43626;53.866;30.298;2022-11-15T08:34:53;1024.5;;;3.1;66.2
57799;BME280;43626;53.866;30.298;2022-11-15T08:39:37;1024.5;;;3.2;66
57799;BME280;43626;53.866;30.298;2022-11-15T08:44:27;1024.5;;;3.2;65.9
57799;BME280;43626;53.866;30.298;2022-11-15T08:49:05;1024.5;;;3.3;65.7
57799;BME280;43626;53.866;30.298;2022-11-15T08:54:25;1024.4;;;3.4;65.5
57799;BME280;43626;53.866;30.298;2022-11-15T08:59:49;1024.2;;;3.4;65.6
57799;BME280;43626;53.866;30.298;2022-11-15T09:04:21;1024.2;;;3.5;65.5
57799;BME280;43626;53.866;30.298;2022-11-15T09:09:51;1024.2;;;3.5;65.5
57799;BME280;43626;53.866;30.298;2022-11-15T09:14:05;1024.1;;;3.6;65.4
57799;BME280;43626;53.866;30.298;2022-11-15T09:19:51;1023.9;;;3.5;65.4
57799;BME280;43626;53.866;30.298;2022-11-15T09:24:29;1023.8;;;3.6;65.5
57799;BME280;43626;53.866;30.298;2022-11-15T09:29:39;1023.7;;;3.6;65.3
57799;BME280;43626;53.866;30.298;2022-11-15T09:34:39;1023.7;;;3.5;65.5
57799;BME280;43626;53.866;30.298;2022-11-15T09:39:05;1023.5;;;3.6;66
57799;BME280;43626;53.866;30.298;2022-11-15T09:44:38;1023.5;;;3.6;66.1
57799;BME280;43626;53.866;30.298;2022-11-15T09:49:53;1023.4;;;3.6;66
57799;BME280;43626;53.866;30.298;2022-11-15T09:54:36;1023.3;;;3.7;66.1
57799;BME280;43626;53.866;30.298;2022-11-15T09:59:23;1023.2;;;3.7;66.2
57799;BME280;43626;53.866;30.298;2022-11-15T10:04:15;1023.1;;;3.8;66.3
57799;BME280;43626;53.866;30.298;2022-11-15T10:09:38;1023.1;;;3.8;66.1
57799;BME280;43626;53.866;30.298;2022-11-15T10:14:56;1023.1;;;3.8;66.3
57799;BME280;43626;53.866;30.298;2022-11-15T10:19:15;1023;;;3.8;66.3
57799;BME280;43626;53.866;30.298;2022-11-15T10:24:52;1022.9;;;3.7;66.5
57799;BME280;43626;53.866;30.298;2022-11-15T10:29:03;1022.8;;;3.7;66.8
57799;BME280;43626;53.866;30.298;2022-11-15T10:34:53;1022.8;;;3.7;67
57799;BME280;43626;53.866;30.298;2022-11-15T10:39:25;1022.6;;;3.8;67.2
57799;BME280;43626;53.866;30.298;2022-11-15T10:44:42;1022.6;;;3.8;67.2
57799;BME280;43626;53.866;30.298;2022-11-15T10:49:37;1022.5;;;3.9;67.3
57799;BME280;43626;53.866;30.298;2022-11-15T10:54:28;1022.4;;;3.9;67.3
57799;BME280;43626;53.866;30.298;2022-11-15T10:59:51;1022.3;;;4;67.2
57799;BME280;43626;53.866;30.298;2022-11-15T11:04:53;1022.2;;;4;67.3
57799;BME280;43626;53.866;30.298;2022-11-15T11:09:37;1022.1;;;3.9;67.3
57799;BME280;43626;53.866;30.298;2022-11-15T11:14:28;1022.1;;;3.9;67.5
57799;BME280;43626;53.866;30.298;2022-11-15T11:19:08;1021.9;;;3.8;68
57799;BME280;43626;53.866;30.298;2022-11-15T11:24:25;1021.8;;;3.8;68.4
57799;BME280;43626;53.866;30.298;2022-11-15T11:29:55;1021.7;;;3.7;68.6
57799;BME280;43626;53.866;30.298;2022-11-15T11:34:29;1021.6;;;3.6;69
57799;BME280;43626;53.866;30.298;2022-11-15T11:39:56;1021.4;;;3.6;69.2
57799;BME280;43626;53.866;30.298;2022-11-15T11:44:07;1021.3;;;3.6;69.2
57799;BME280;43626;53.866;30.298;2022-11-15T11:49:15;1021.3;;;3.5;69.2
57799;BME280;43626;53.866;30.298;2022-11-15T11:54:26;1021.1;;;3.6;69.2
57799;BME280;43626;53.866;30.298;2022-11-15T11:59:42;1021;;;3.7;69
57799;BME280;43626;53.866;30.298;2022-11-15T12:04:32;1020.9;;;3.7;68.9
57799;BME280;43626;53.866;30.298;2022-11-15T12:09:07;1020.8;;;3.6;68.9
57799;BME280;43626;53.866;30.298;2022-11-15T12:14:18;1020.8;;;3.5;69
57799;BME280;43626;53.866;30.298;2022-11-15T12:19:39;1020.7;;;3.5;69.4
57799;BME280;43626;53.866;30.298;2022-11-15T12:24:57;1020.7;;;3.5;69.5
57799;BME280;43626;53.866;30.298;2022-11-15T12:29:30;1020.6;;;3.5;69.5
57799;BME280;43626;53.866;30.298;2022-11-15T12:34:13;1020.5;;;3.5;69.5
57799;BME280;43626;53.866;30.298;2022-11-15T12:39:06;1020.5;;;3.5;69.4
57799;BME280;43626;53.866;30.298;2022-11-15T12:45:23;1020.4;;;3.5;69.2
57799;BME280;43626;53.866;30.298;2022-11-15T12:49:07;1020.3;;;3.5;69.1
57799;BME280;43626;53.866;30.298;2022-11-15T12:54:51;1020.3;;;3.5;69.1
57799;BME280;43626;53.866;30.298;2022-11-15T12:59:06;1020.2;;;3.4;69.2
57799;BME280;43626;53.866;30.298;2022-11-15T13:04:34;1020.2;;;3.5;69.3
57799;BME280;43626;53.866;30.298;2022-11-15T13:09:56;1020.1;;;3.5;69.1
57799;BME280;43626;53.866;30.298;2022-11-15T13:14:42;1020;;;3.5;69.2
57799;BME280;43626;53.866;30.298;2022-11-15T13:19:41;1020;;;3.5;69
57799;BME280;43626;53.866;30.298;2022-11-15T13:24:15;1019.9;;;3.5;69.1
57799;BME280;43626;53.866;30.298;2022-11-15T13:29:14;1019.9;;;3.5;69.1
57799;BME280;43626;53.866;30.298;2022-11-15T13:34:53;1019.8;;;3.5;69
57799;BME280;43626;53.866;30.298;2022-11-15T13:39:53;1019.8;;;3.5;69.1
57799;BME280;43626;53.866;30.298;2022-11-15T13:44:30;1019.8;;;3.4;69.3
57799;BME280;43626;53.866;30.298;2022-11-15T13:49:07;1019.7;;;3.4;69.4
57799;BME280;43626;53.866;30.298;2022-11-15T13:54:16;1019.6;;;3.5;69.3
57799;BME280;43626;53.866;30.298;2022-11-15T13:59:53;1019.5;;;3.5;69.3
57799;BME280;43626;53.866;30.298;2022-11-15T14:04:45;1019.5;;;3.6;69.2
57799;BME280;43626;53.866;30.298;2022-11-15T14:09:43;1019.5;;;3.7;69
57799;BME280;43626;53.866;30.298;2022-11-15T14:14:26;1019.4;;;3.7;68.9
57799;BME280;43626;53.866;30.298;2022-11-15T14:19:33;1019.4;;;3.7;68.8
57799;BME280;43626;53.866;30.298;2022-11-15T14:24:23;1019.4;;;3.8;68.7
57799;BME280;43626;53.866;30.298;2022-11-15T14:29:43;1019.4;;;3.8;68.7
57799;BME280;43626;53.866;30.298;2022-11-15T14:34:17;1019.3;;;3.8;68.9
57799;BME280;43626;53.866;30.298;2022-11-15T14:39:15;1019.3;;;3.9;68.8
57799;BME280;43626;53.866;30.298;2022-11-15T14:44:05;1019.3;;;3.9;68.9
57799;BME280;43626;53.866;30.298;2022-11-15T14:49:55;1019.3;;;4;68.9
57799;BME280;43626;53.866;30.298;2022-11-15T14:54:55;1019.3;;;4;68.9
57799;BME280;43626;53.866;30.298;2022-11-15T14:59:27;1019.2;;;4;69
57799;BME280;43626;53.866;30.298;2022-11-15T15:04:25;1019.1;;;4;68.9
57799;BME280;43626;53.866;30.298;2022-11-15T15:09:05;1019;;;4;68.8
57799;BME280;43626;53.866;30.298;2022-11-15T15:14:53;1019;;;4;68.8
57799;BME280;43626;53.866;30.298;2022-11-15T15:19:15;1018.9;;;4.1;68.6
57799;BME280;43626;53.866;30.298;2022-11-15T15:24:41;1018.8;;;4.1;68.4
57799;BME280;43626;53.866;30.298;2022-11-15T15:29:13;1018.8;;;4.1;68.4
57799;BME280;43626;53.866;30.298;2022-11-15T15:34:25;1018.7;;;4.1;68.4
57799;BME280;43626;53.866;30.298;2022-11-15T15:39:13;1018.7;;;4.1;68.5
57799;BME280;43626;53.866;30.298;2022-11-15T15:44:43;1018.6;;;4.1;68.6
57799;BME280;43626;53.866;30.298;2022-11-15T15:49:39;1018.5;;;4.2;68.3
57799;BME280;43626;53.866;30.298;2022-11-15T15:54:13;1018.5;;;4.2;68.2
57799;BME280;43626;53.866;30.298;2022-11-15T15:59:13;1018.6;;;4.2;68.2
57799;BME280;43626;53.866;30.298;2022-11-15T16:04:37;1018.6;;;4.3;68.2
57799;BME280;43626;53.866;30.298;2022-11-15T16:09:23;1018.5;;;4.3;68.2
57799;BME280;43626;53.866;30.298;2022-11-15T16:14:55;1018.5;;;4.4;67.9
57799;BME280;43626;53.866;30.298;2022-11-15T16:19:29;1018.4;;;4.4;67.7
57799;BME280;43626;53.866;30.298;2022-11-15T16:24:05;1018.3;;;4.3;67.8
57799;BME280;43626;53.866;30.298;2022-11-15T16:29:23;1018.3;;;4.4;67.9
57799;BME280;43626;53.866;30.298;2022-11-15T16:34:55;1018.3;;;4.4;67.7
57799;BME280;43626;53.866;30.298;2022-11-15T16:39:55;1018.2;;;4.3;67.8
57799;BME280;43626;53.866;30.298;2022-11-15T16:44:55;1018.2;;;4.3;67.9
57799;BME280;43626;53.866;30.298;2022-11-15T16:49:15;1018.2;;;4.4;67.9
57799;BME280;43626;53.866;30.298;2022-11-15T16:54:41;1018.2;;;4.4;68
57799;BME280;43626;53.866;30.298;2022-11-15T16:59:35;1018.1;;;4.4;68
57799;BME280;43626;53.866;30.298;2022-11-15T17:04:43;1018.1;;;4.4;68
57799;BME280;43626;53.866;30.298;2022-11-15T17:09:41;1018.1;;;4.4;68.2
57799;BME280;43626;53.866;30.298;2022-11-15T17:14:15;1018.1;;;4.4;68.2
57799;BME280;43626;53.866;30.298;2022-11-15T17:19:37;1018.1;;;4.4;68.2
57799;BME280;43626;53.866;30.298;2022-11-15T17:24:15;1018;;;4.4;68.2
57799;BME280;43626;53.866;30.298;2022-11-15T17:29:55;1018;;;4.4;68.3
57799;BME280;43626;53.866;30.298;2022-11-15T17:34:43;1018;;;4.5;68.1
57799;BME280;43626;53.866;30.298;2022-11-15T17:39:05;1017.9;;;4.5;68
57799;BME280;43626;53.866;30.298;2022-11-15T17:44:15;1017.8;;;4.5;68.1
57799;BME280;43626;53.866;30.298;2022-11-15T17:49:55;1017.7;;;4.5;68.2
57799;BME280;43626;53.866;30.298;2022-11-15T17:54:55;1017.7;;;4.6;68.2
57799;BME280;43626;53.866;30.298;2022-11-15T17:59:51;1017.7;;;4.6;68.2
57799;BME280;43626;53.866;30.298;2022-11-15T18:04:04;1017.6;;;4.6;68.2
57799;BME280;43626;53.866;30.298;2022-11-15T18:09:41;1017.6;;;4.6;68.2
57799;BME280;43626;53.866;30.298;2022-11-15T18:14:39;1017.5;;;4.6;68.2
57799;BME280;43626;53.866;30.298;2022-11-15T18:19:19;1017.5;;;4.7;68.2
57799;BME280;43626;53.866;30.298;2022-11-15T18:24:55;1017.5;;;4.7;67.9
57799;BME280;43626;53.866;30.298;2022-11-15T18:29:13;1017.5;;;4.6;68.1
57799;BME280;43626;53.866;30.298;2022-11-15T18:34:39;1017.5;;;4.7;68.1
57799;BME280;43626;53.866;30.298;2022-11-15T18:39:25;1017.5;;;4.7;68
57799;BME280;43626;53.866;30.298;2022-11-15T18:44:55;1017.5;;;4.8;67.9
57799;BME280;43626;53.866;30.298;2022-11-15T18:49:29;1017.5;;;4.8;68
57799;BME280;43626;53.866;30.298;2022-11-15T18:54:15;1017.5;;;4.8;68
57799;BME280;43626;53.866;30.298;2022-11-15T18:59:39;1017.5;;;4.8;67.9
57799;BME280;43626;53.866;30.298;2022-11-15T19:04:51;1017.6;;;4.8;67.9
57799;BME280;43626;53.866;30.298;2022-11-15T19:09:55;1017.5;;;4.8;67.9
57799;BME280;43626;53.866;30.298;2022-11-15T19:14:43;1017.5;;;4.8;67.9
57799;BME280;43626;53.866;30.298;2022-11-15T19:19:06;1017.5;;;4.8;67.8
57799;BME280;43626;53.866;30.298;2022-11-15T19:24:51;1017.5;;;4.8;67.8
57799;BME280;43626;53.866;30.298;2022-11-15T19:29:27;1017.5;;;4.8;67.8
57799;BME280;43626;53.866;30.298;2022-11-15T19:34:29;1017.5;;;4.8;67.8
57799;BME280;43626;53.866;30.298;2022-11-15T19:39:57;1017.5;;;4.9;67.7
57799;BME280;43626;53.866;30.298;2022-11-15T19:44:15;1017.5;;;4.9;67.7
57799;BME280;43626;53.866;30.298;2022-11-15T19:49:39;1017.4;;;5;67.6
57799;BME280;43626;53.866;30.298;2022-11-15T19:54:25;1017.5;;;5;67.6
57799;BME280;43626;53.866;30.298;2022-11-15T19:59:53;1017.4;;;5.1;67.5
57799;BME280;43626;53.866;30.298;2022-11-15T20:04:29;1017.4;;;5.1;67.5
57799;BME280;43626;53.866;30.298;2022-11-15T20:09:41;1017.4;;;5;67.5
57799;BME280;43626;53.866;30.298;2022-11-15T20:14:27;1017.4;;;5;67.5
57799;BME280;43626;53.866;30.298;2022-11-15T20:19:55;1017.4;;;5;67.4
57799;BME280;43626;53.866;30.298;2022-11-15T20:24:25;1017.4;;;5;67.5
57799;BME280;43626;53.866;30.298;2022-11-15T20:29:57;1017.4;;;5;67.6
57799;BME280;43626;53.866;30.298;2022-11-15T20:34:05;1017.4;;;5;67.6
57799;BME280;43626;53.866;30.298;2022-11-15T20:39:43;1017.4;;;5;67.8
57799;BME280;43626;53.866;30.298;2022-11-15T20:44:39;1017.4;;;5;67.9
57799;BME280;43626;53.866;30.298;2022-11-15T20:49:41;1017.2;;;5.1;67.8
57799;BME280;43626;53.866;30.298;2022-11-15T20:54:57;1017.2;;;5.1;67.8
57799;BME280;43626;53.866;30.298;2022-11-15T20:59:03;1017.2;;;5.1;67.8
57799;BME280;43626;53.866;30.298;2022-11-15T21:04:55;1017.3;;;5.2;67.8
57799;BME280;43626;53.866;30.298;2022-11-15T21:09:27;1017.3;;;5.2;67.7
57799;BME280;43626;53.866;30.298;2022-11-15T21:14:39;1017.2;;;5.1;67.4
57799;BME280;43626;53.866;30.298;2022-11-15T21:19:15;1017.2;;;5.1;67.5
57799;BME280;43626;53.866;30.298;2022-11-15T21:24:15;1017.2;;;5.1;67.5
57799;BME280;43626;53.866;30.298;2022-11-15T21:29:23;1017.2;;;5.2;67.3
57799;BME280;43626;53.866;30.298;2022-11-15T21:34:41;1017.2;;;5.2;67.4
57799;BME280;43626;53.866;30.298;2022-11-15T21:39:25;1017.1;;;5.2;67.3
57799;BME280;43626;53.866;30.298;2022-11-15T21:44:55;1017.1;;;5.3;67.4
57799;BME280;43626;53.866;30.298;2022-11-15T21:49:15;1017.1;;;5.3;67.3
57799;BME280;43626;53.866;30.298;2022-11-15T21:54:55;1017.1;;;5.3;67.2
57799;BME280;43626;53.866;30.298;2022-11-15T21:59:35;1017.1;;;5.3;67.1
57799;BME280;43626;53.866;30.298;2022-11-15T22:04:21;1017.1;;;5.2;67
57799;BME280;43626;53.866;30.298;2022-11-15T22:09:51;1017.1;;;5.1;67.2
57799;BME280;43626;53.866;30.298;2022-11-15T22:14:03;1017.1;;;5;67.3
57799;BME280;43626;53.866;30.298;2022-11-15T22:19:51;1017.1;;;5;67.1
57799;BME280;43626;53.866;30.298;2022-11-15T22:24:21;1017;;;5;67.4
57799;BME280;43626;53.866;30.298;2022-11-15T22:29:33;1017;;;5;67.3
57799;BME280;43626;53.866;30.298;2022-11-15T22:34:19;1016.9;;;5.1;67.1
57799;BME280;43626;53.866;30.298;2022-11-15T22:39:05;1016.9;;;5.2;66.9
57799;BME280;43626;53.866;30.298;2022-11-15T22:44:21;1016.9;;;5.2;66.7
57799;BME280;43626;53.866;30.298;2022-11-15T22:49:39;1016.9;;;5.2;66.5
57799;BME280;43626;53.866;30.298;2022-11-15T22:54:21;1016.9;;;5.2;66.7
57799;BME280;43626;53.866;30.298;2022-11-15T22:59:51;1017;;;5.2;66.8
57799;BME280;43626;53.866;30.298;2022-11-15T23:04:05;1016.9;;;5.2;66.8
57799;BME280;43626;53.866;30.298;2022-11-15T23:09:39;1016.9;;;5.3;66.5
57799;BME280;43626;53.866;30.298;2022-11-15T23:14:35;1016.9;;;5.2;66.3
57799;BME280;43626;53.866;30.298;2022-11-15T23:19:39;1016.9;;;5.2;66.1
57799;BME280;43626;53.866;30.298;2022-11-15T23:24:52;1016.9;;;5.2;66.2
57799;BME280;43626;53.866;30.298;2022-11-15T23:29:10;1016.8;;;5.2;66.1
57799;BME280;43626;53.866;30.298;2022-11-15T23:34:51;1016.8;;;5.3;66
57799;BME280;43626;53.866;30.298;2022-11-15T23:39:21;1016.8;;;5.4;66.1
57799;BME280;43626;53.866;30.298;2022-11-15T23:44:37;1016.8;;;5.4;66.1
57799;BME280;43626;53.866;30.298;2022-11-15T23:49:25;1016.8;;;5.4;66.1
57799;BME280;43626;53.866;30.298;2022-11-15T23:54:05;1016.8;;;5.4;66.1
57799;BME280;43626;53.866;30.298;2022-11-15T23:59:03;1016.8;;;5.4;66.2
